sensor_id;sensor_type;location;lat;lon;timestamp;P1;durP1;ratioP1;P2;durP2;ratioP2
20334;SDS011;10325;51.468;5.804;2022-08-19T00:01:57;8.30;;;7.60;;
20334;SDS011;10325;51.468;5.804;2022-08-19T00:04:29;8.47;;;7.67;;
20334;SDS011;10325;51.468;5.804;2022-08-19T00:07:02;8.10;;;7.50;;
20334;SDS011;10325;51.468;5.804;2022-08-19T00:09:31;8.17;;;7.47;;
20334;SDS011;10325;51.468;5.804;2022-08-19T00:12:00;8.37;;;7.67;;
20334;SDS011;10325;51.468;5.804;2022-08-19T00:14:30;8.30;;;7.60;;
20334;SDS011;10325;51.468;5.804;2022-08-19T00:17:02;8.13;;;7.33;;
20334;SDS011;10325;51.468;5.804;2022-08-19T00:19:38;8.37;;;7.57;;
20334;SDS011;10325;51.468;5.804;2022-08-19T00:22:13;9.07;;;8.27;;
20334;SDS011;10325;51.468;5.804;2022-08-19T00:24:47;10.37;;;7.80;;
20334;SDS011;10325;51.468;5.804;2022-08-19T00:27:19;8.20;;;7.53;;
20334;SDS011;10325;51.468;5.804;2022-08-19T00:29:53;8.93;;;8.13;;
20334;SDS011;10325;51.468;5.804;2022-08-19T00:32:22;8.47;;;7.67;;
20334;SDS011;10325;51.468;5.804;2022-08-19T00:35:00;8.17;;;7.47;;
20334;SDS011;10325;51.468;5.804;2022-08-19T00:37:32;8.60;;;7.67;;
20334;SDS011;10325;51.468;5.804;2022-08-19T00:40:07;8.73;;;7.67;;
20334;SDS011;10325;51.468;5.804;2022-08-19T00:42:39;7.40;;;6.80;;
20334;SDS011;10325;51.468;5.804;2022-08-19T00:45:10;8.80;;;8.00;;
20334;SDS011;10325;51.468;5.804;2022-08-19T00:47:41;7.90;;;7.20;;
20334;SDS011;10325;51.468;5.804;2022-08-19T00:50:13;8.70;;;7.30;;
20334;SDS011;10325;51.468;5.804;2022-08-19T00:52:44;8.40;;;7.67;;
20334;SDS011;10325;51.468;5.804;2022-08-19T00:55:19;7.70;;;7.07;;
20334;SDS011;10325;51.468;5.804;2022-08-19T00:58:00;7.87;;;7.17;;
20334;SDS011;10325;51.468;5.804;2022-08-19T01:00:33;8.23;;;7.53;;
20334;SDS011;10325;51.468;5.804;2022-08-19T01:03:08;7.80;;;7.10;;
20334;SDS011;10325;51.468;5.804;2022-08-19T01:05:39;8.30;;;7.50;;
20334;SDS011;10325;51.468;5.804;2022-08-19T01:08:13;7.83;;;7.10;;
20334;SDS011;10325;51.468;5.804;2022-08-19T01:10:46;7.50;;;6.90;;
20334;SDS011;10325;51.468;5.804;2022-08-19T01:13:29;7.87;;;7.27;;
20334;SDS011;10325;51.468;5.804;2022-08-19T01:16:17;7.50;;;6.80;;
20334;SDS011;10325;51.468;5.804;2022-08-19T01:18:47;7.77;;;7.17;;
20334;SDS011;10325;51.468;5.804;2022-08-19T01:21:32;8.17;;;7.47;;
20334;SDS011;10325;51.468;5.804;2022-08-19T01:24:05;8.00;;;7.27;;
20334;SDS011;10325;51.468;5.804;2022-08-19T01:26:41;7.60;;;6.97;;
20334;SDS011;10325;51.468;5.804;2022-08-19T01:29:20;8.20;;;7.50;;
20334;SDS011;10325;51.468;5.804;2022-08-19T01:31:52;7.70;;;7.00;;
20334;SDS011;10325;51.468;5.804;2022-08-19T01:34:24;8.67;;;7.07;;
20334;SDS011;10325;51.468;5.804;2022-08-19T01:36:54;7.80;;;7.20;;
20334;SDS011;10325;51.468;5.804;2022-08-19T01:39:24;7.93;;;7.23;;
20334;SDS011;10325;51.468;5.804;2022-08-19T01:41:56;7.97;;;7.20;;
20334;SDS011;10325;51.468;5.804;2022-08-19T01:44:24;8.00;;;7.20;;
20334;SDS011;10325;51.468;5.804;2022-08-19T01:46:56;9.33;;;7.70;;
20334;SDS011;10325;51.468;5.804;2022-08-19T01:49:27;11.27;;;7.30;;
20334;SDS011;10325;51.468;5.804;2022-08-19T01:51:58;7.53;;;6.87;;
20334;SDS011;10325;51.468;5.804;2022-08-19T01:54:27;8.03;;;7.33;;
20334;SDS011;10325;51.468;5.804;2022-08-19T01:57:12;7.83;;;7.13;;
20334;SDS011;10325;51.468;5.804;2022-08-19T01:59:42;7.63;;;6.97;;
20334;SDS011;10325;51.468;5.804;2022-08-19T02:02:18;7.70;;;7.00;;
20334;SDS011;10325;51.468;5.804;2022-08-19T02:04:48;8.20;;;6.50;;
20334;SDS011;10325;51.468;5.804;2022-08-19T02:07:20;7.80;;;7.13;;
20334;SDS011;10325;51.468;5.804;2022-08-19T02:09:49;7.60;;;7.00;;
20334;SDS011;10325;51.468;5.804;2022-08-19T02:12:18;7.83;;;7.23;;
20334;SDS011;10325;51.468;5.804;2022-08-19T02:14:50;8.20;;;7.50;;
20334;SDS011;10325;51.468;5.804;2022-08-19T02:17:22;7.67;;;7.07;;
20334;SDS011;10325;51.468;5.804;2022-08-19T02:19:53;8.20;;;7.60;;
20334;SDS011;10325;51.468;5.804;2022-08-19T02:22:27;8.33;;;7.63;;
20334;SDS011;10325;51.468;5.804;2022-08-19T02:24:58;8.47;;;7.77;;
20334;SDS011;10325;51.468;5.804;2022-08-19T02:27:28;8.17;;;7.47;;
20334;SDS011;10325;51.468;5.804;2022-08-19T02:29:59;8.07;;;7.40;;
20334;SDS011;10325;51.468;5.804;2022-08-19T02:32:31;8.17;;;7.47;;
20334;SDS011;10325;51.468;5.804;2022-08-19T02:35:12;8.30;;;7.70;;
20334;SDS011;10325;51.468;5.804;2022-08-19T02:37:44;7.70;;;7.10;;
20334;SDS011;10325;51.468;5.804;2022-08-19T02:40:34;8.50;;;7.70;;
20334;SDS011;10325;51.468;5.804;2022-08-19T02:43:10;8.47;;;7.30;;
20334;SDS011;10325;51.468;5.804;2022-08-19T02:45:52;8.03;;;7.23;;
20334;SDS011;10325;51.468;5.804;2022-08-19T02:48:21;8.10;;;7.40;;
20334;SDS011;10325;51.468;5.804;2022-08-19T02:50:52;8.00;;;7.30;;
20334;SDS011;10325;51.468;5.804;2022-08-19T02:53:26;8.27;;;7.60;;
20334;SDS011;10325;51.468;5.804;2022-08-19T02:56:06;7.67;;;7.07;;
20334;SDS011;10325;51.468;5.804;2022-08-19T02:58:38;7.83;;;7.23;;
20334;SDS011;10325;51.468;5.804;2022-08-19T03:01:05;7.00;;;6.50;;
20334;SDS011;10325;51.468;5.804;2022-08-19T03:03:38;7.40;;;6.80;;
20334;SDS011;10325;51.468;5.804;2022-08-19T03:06:11;7.70;;;7.00;;
20334;SDS011;10325;51.468;5.804;2022-08-19T03:08:45;7.27;;;6.67;;
20334;SDS011;10325;51.468;5.804;2022-08-19T03:11:30;7.40;;;6.70;;
20334;SDS011;10325;51.468;5.804;2022-08-19T03:14:18;7.23;;;6.27;;
20334;SDS011;10325;51.468;5.804;2022-08-19T03:16:52;7.30;;;6.70;;
20334;SDS011;10325;51.468;5.804;2022-08-19T03:19:22;6.67;;;6.17;;
20334;SDS011;10325;51.468;5.804;2022-08-19T03:21:54;6.60;;;6.10;;
20334;SDS011;10325;51.468;5.804;2022-08-19T03:24:27;7.63;;;6.93;;
20334;SDS011;10325;51.468;5.804;2022-08-19T03:27:12;7.13;;;6.53;;
20334;SDS011;10325;51.468;5.804;2022-08-19T03:29:45;6.93;;;6.33;;
20334;SDS011;10325;51.468;5.804;2022-08-19T03:32:18;7.13;;;6.53;;
20334;SDS011;10325;51.468;5.804;2022-08-19T03:35:00;7.43;;;6.73;;
20334;SDS011;10325;51.468;5.804;2022-08-19T03:37:32;8.27;;;6.77;;
20334;SDS011;10325;51.468;5.804;2022-08-19T03:40:09;7.20;;;6.60;;
20334;SDS011;10325;51.468;5.804;2022-08-19T03:42:42;7.50;;;6.90;;
20334;SDS011;10325;51.468;5.804;2022-08-19T03:45:16;8.07;;;7.37;;
20334;SDS011;10325;51.468;5.804;2022-08-19T03:47:58;7.57;;;6.87;;
20334;SDS011;10325;51.468;5.804;2022-08-19T03:50:30;8.03;;;7.33;;
20334;SDS011;10325;51.468;5.804;2022-08-19T03:53:04;8.27;;;7.47;;
20334;SDS011;10325;51.468;5.804;2022-08-19T03:55:40;8.70;;;8.00;;
20334;SDS011;10325;51.468;5.804;2022-08-19T03:58:10;10.40;;;7.27;;
20334;SDS011;10325;51.468;5.804;2022-08-19T04:00:42;8.80;;;8.03;;
20334;SDS011;10325;51.468;5.804;2022-08-19T04:03:11;9.23;;;8.53;;
20334;SDS011;10325;51.468;5.804;2022-08-19T04:05:41;8.97;;;8.17;;
20334;SDS011;10325;51.468;5.804;2022-08-19T04:08:14;8.33;;;7.63;;
20334;SDS011;10325;51.468;5.804;2022-08-19T04:11:10;9.17;;;8.37;;
20334;SDS011;10325;51.468;5.804;2022-08-19T04:14:12;8.47;;;7.67;;
20334;SDS011;10325;51.468;5.804;2022-08-19T04:16:57;8.60;;;7.80;;
20334;SDS011;10325;51.468;5.804;2022-08-19T04:19:43;9.13;;;8.33;;
20334;SDS011;10325;51.468;5.804;2022-08-19T04:22:14;9.27;;;8.37;;
20334;SDS011;10325;51.468;5.804;2022-08-19T04:24:49;8.97;;;8.27;;
20334;SDS011;10325;51.468;5.804;2022-08-19T04:27:22;9.03;;;8.33;;
20334;SDS011;10325;51.468;5.804;2022-08-19T04:29:55;9.17;;;8.27;;
20334;SDS011;10325;51.468;5.804;2022-08-19T04:32:28;8.80;;;8.10;;
20334;SDS011;10325;51.468;5.804;2022-08-19T04:35:09;8.60;;;7.80;;
20334;SDS011;10325;51.468;5.804;2022-08-19T04:37:50;9.40;;;8.60;;
20334;SDS011;10325;51.468;5.804;2022-08-19T04:40:24;9.57;;;8.63;;
20334;SDS011;10325;51.468;5.804;2022-08-19T04:43:14;9.33;;;8.53;;
20334;SDS011;10325;51.468;5.804;2022-08-19T04:45:48;9.60;;;8.80;;
20334;SDS011;10325;51.468;5.804;2022-08-19T04:48:23;10.17;;;8.87;;
20334;SDS011;10325;51.468;5.804;2022-08-19T04:51:11;9.87;;;8.97;;
20334;SDS011;10325;51.468;5.804;2022-08-19T04:53:43;9.77;;;8.97;;
20334;SDS011;10325;51.468;5.804;2022-08-19T04:56:15;12.07;;;8.67;;
20334;SDS011;10325;51.468;5.804;2022-08-19T04:58:47;9.47;;;8.67;;
20334;SDS011;10325;51.468;5.804;2022-08-19T05:01:26;9.03;;;8.23;;
20334;SDS011;10325;51.468;5.804;2022-08-19T05:03:58;9.13;;;8.33;;
20334;SDS011;10325;51.468;5.804;2022-08-19T05:06:30;10.60;;;9.50;;
20334;SDS011;10325;51.468;5.804;2022-08-19T05:09:09;12.17;;;8.37;;
20334;SDS011;10325;51.468;5.804;2022-08-19T05:11:41;10.87;;;8.90;;
20334;SDS011;10325;51.468;5.804;2022-08-19T05:14:14;9.97;;;8.97;;
20334;SDS011;10325;51.468;5.804;2022-08-19T05:16:46;10.83;;;8.43;;
20334;SDS011;10325;51.468;5.804;2022-08-19T05:19:41;9.87;;;9.00;;
20334;SDS011;10325;51.468;5.804;2022-08-19T05:22:28;10.63;;;9.40;;
20334;SDS011;10325;51.468;5.804;2022-08-19T05:25:05;10.63;;;9.50;;
20334;SDS011;10325;51.468;5.804;2022-08-19T05:27:39;10.60;;;9.60;;
20334;SDS011;10325;51.468;5.804;2022-08-19T05:30:09;10.80;;;9.90;;
20334;SDS011;10325;51.468;5.804;2022-08-19T05:32:43;11.27;;;10.13;;
20334;SDS011;10325;51.468;5.804;2022-08-19T05:35:12;12.20;;;11.00;;
20334;SDS011;10325;51.468;5.804;2022-08-19T05:37:41;11.50;;;10.50;;
20334;SDS011;10325;51.468;5.804;2022-08-19T05:40:11;12.57;;;11.27;;
20334;SDS011;10325;51.468;5.804;2022-08-19T05:42:42;12.67;;;11.57;;
20334;SDS011;10325;51.468;5.804;2022-08-19T05:45:22;13.93;;;12.53;;
20334;SDS011;10325;51.468;5.804;2022-08-19T05:47:52;13.27;;;12.07;;
20334;SDS011;10325;51.468;5.804;2022-08-19T05:50:25;12.60;;;11.60;;
20334;SDS011;10325;51.468;5.804;2022-08-19T05:52:57;15.10;;;13.60;;
20334;SDS011;10325;51.468;5.804;2022-08-19T05:55:28;15.63;;;14.23;;
20334;SDS011;10325;51.468;5.804;2022-08-19T05:58:00;16.63;;;15.13;;
20334;SDS011;10325;51.468;5.804;2022-08-19T06:00:37;17.80;;;16.13;;
20334;SDS011;10325;51.468;5.804;2022-08-19T06:03:08;18.83;;;17.13;;
20334;SDS011;10325;51.468;5.804;2022-08-19T06:05:41;19.80;;;17.83;;
20334;SDS011;10325;51.468;5.804;2022-08-19T06:08:19;22.93;;;20.37;;
20334;SDS011;10325;51.468;5.804;2022-08-19T06:14:19;26.57;;;23.87;;
20334;SDS011;10325;51.468;5.804;2022-08-19T06:16:56;26.17;;;23.47;;
20334;SDS011;10325;51.468;5.804;2022-08-19T06:19:33;30.83;;;26.00;;
20334;SDS011;10325;51.468;5.804;2022-08-19T06:22:07;28.57;;;25.50;;
20334;SDS011;10325;51.468;5.804;2022-08-19T06:24:39;27.83;;;25.23;;
20334;SDS011;10325;51.468;5.804;2022-08-19T06:27:13;29.63;;;26.73;;
20334;SDS011;10325;51.468;5.804;2022-08-19T06:29:44;27.10;;;24.40;;
20334;SDS011;10325;51.468;5.804;2022-08-19T06:32:15;28.63;;;25.83;;
20334;SDS011;10325;51.468;5.804;2022-08-19T06:34:49;27.37;;;24.77;;
20334;SDS011;10325;51.468;5.804;2022-08-19T06:37:21;27.33;;;24.53;;
20334;SDS011;10325;51.468;5.804;2022-08-19T06:40:00;26.23;;;23.47;;
20334;SDS011;10325;51.468;5.804;2022-08-19T06:42:29;27.77;;;25.10;;
20334;SDS011;10325;51.468;5.804;2022-08-19T06:45:00;26.37;;;23.87;;
20334;SDS011;10325;51.468;5.804;2022-08-19T06:47:35;27.17;;;24.57;;
20334;SDS011;10325;51.468;5.804;2022-08-19T06:50:04;26.57;;;23.67;;
20334;SDS011;10325;51.468;5.804;2022-08-19T06:52:33;26.23;;;23.50;;
20334;SDS011;10325;51.468;5.804;2022-08-19T06:55:05;25.90;;;23.43;;
20334;SDS011;10325;51.468;5.804;2022-08-19T06:57:38;26.57;;;23.97;;
20334;SDS011;10325;51.468;5.804;2022-08-19T07:00:14;26.23;;;23.63;;
20334;SDS011;10325;51.468;5.804;2022-08-19T07:02:44;26.47;;;24.00;;
20334;SDS011;10325;51.468;5.804;2022-08-19T07:05:24;25.60;;;23.07;;
20334;SDS011;10325;51.468;5.804;2022-08-19T07:07:55;25.43;;;22.83;;
20334;SDS011;10325;51.468;5.804;2022-08-19T07:10:32;25.63;;;23.07;;
20334;SDS011;10325;51.468;5.804;2022-08-19T07:13:08;25.93;;;23.27;;
20334;SDS011;10325;51.468;5.804;2022-08-19T07:15:38;26.00;;;23.30;;
20334;SDS011;10325;51.468;5.804;2022-08-19T07:18:10;26.03;;;23.20;;
20334;SDS011;10325;51.468;5.804;2022-08-19T07:20:44;26.10;;;23.60;;
20334;SDS011;10325;51.468;5.804;2022-08-19T07:23:20;25.57;;;22.97;;
20334;SDS011;10325;51.468;5.804;2022-08-19T07:25:51;25.37;;;22.87;;
20334;SDS011;10325;51.468;5.804;2022-08-19T07:28:20;25.10;;;22.40;;
20334;SDS011;10325;51.468;5.804;2022-08-19T07:30:59;25.97;;;21.90;;
20334;SDS011;10325;51.468;5.804;2022-08-19T07:33:36;25.03;;;22.43;;
20334;SDS011;10325;51.468;5.804;2022-08-19T07:36:10;24.47;;;21.87;;
20334;SDS011;10325;51.468;5.804;2022-08-19T07:38:43;24.00;;;21.60;;
20334;SDS011;10325;51.468;5.804;2022-08-19T07:41:22;23.23;;;20.73;;
20334;SDS011;10325;51.468;5.804;2022-08-19T07:43:58;24.20;;;20.90;;
20334;SDS011;10325;51.468;5.804;2022-08-19T07:46:34;24.47;;;20.57;;
20334;SDS011;10325;51.468;5.804;2022-08-19T07:49:08;22.53;;;20.13;;
20334;SDS011;10325;51.468;5.804;2022-08-19T07:51:52;22.77;;;20.33;;
20334;SDS011;10325;51.468;5.804;2022-08-19T07:54:35;21.80;;;19.60;;
20334;SDS011;10325;51.468;5.804;2022-08-19T07:57:16;21.93;;;19.67;;
20334;SDS011;10325;51.468;5.804;2022-08-19T08:00:06;21.67;;;19.37;;
20334;SDS011;10325;51.468;5.804;2022-08-19T08:02:39;21.70;;;19.50;;
20334;SDS011;10325;51.468;5.804;2022-08-19T08:05:13;22.00;;;19.40;;
20334;SDS011;10325;51.468;5.804;2022-08-19T08:08:11;22.10;;;19.90;;
20334;SDS011;10325;51.468;5.804;2022-08-19T08:11:01;21.50;;;19.30;;
20334;SDS011;10325;51.468;5.804;2022-08-19T08:13:33;20.83;;;18.73;;
20334;SDS011;10325;51.468;5.804;2022-08-19T08:16:06;19.53;;;17.40;;
20334;SDS011;10325;51.468;5.804;2022-08-19T08:18:41;19.10;;;17.17;;
20334;SDS011;10325;51.468;5.804;2022-08-19T08:21:23;19.90;;;16.17;;
20334;SDS011;10325;51.468;5.804;2022-08-19T08:23:55;20.37;;;16.30;;
20334;SDS011;10325;51.468;5.804;2022-08-19T08:26:29;17.40;;;15.23;;
20334;SDS011;10325;51.468;5.804;2022-08-19T08:29:01;17.70;;;15.80;;
20334;SDS011;10325;51.468;5.804;2022-08-19T08:31:41;17.33;;;14.63;;
20334;SDS011;10325;51.468;5.804;2022-08-19T08:34:25;17.90;;;15.63;;
20334;SDS011;10325;51.468;5.804;2022-08-19T08:36:55;16.60;;;14.57;;
20334;SDS011;10325;51.468;5.804;2022-08-19T08:39:29;16.03;;;14.17;;
20334;SDS011;10325;51.468;5.804;2022-08-19T08:42:34;15.93;;;14.17;;
20334;SDS011;10325;51.468;5.804;2022-08-19T08:45:10;13.90;;;12.37;;
20334;SDS011;10325;51.468;5.804;2022-08-19T08:47:47;12.60;;;11.30;;
20334;SDS011;10325;51.468;5.804;2022-08-19T08:50:50;14.43;;;12.17;;
20334;SDS011;10325;51.468;5.804;2022-08-19T08:53:24;14.17;;;10.80;;
20334;SDS011;10325;51.468;5.804;2022-08-19T08:56:00;11.27;;;9.90;;
20334;SDS011;10325;51.468;5.804;2022-08-19T08:58:41;13.63;;;10.07;;
20334;SDS011;10325;51.468;5.804;2022-08-19T09:01:11;13.03;;;8.93;;
20334;SDS011;10325;51.468;5.804;2022-08-19T09:03:43;9.07;;;8.17;;
20334;SDS011;10325;51.468;5.804;2022-08-19T09:14:49;8.93;;;7.97;;
20334;SDS011;10325;51.468;5.804;2022-08-19T09:17:22;8.80;;;7.90;;
20334;SDS011;10325;51.468;5.804;2022-08-19T09:20:18;10.33;;;7.17;;
20334;SDS011;10325;51.468;5.804;2022-08-19T09:22:47;9.63;;;7.70;;
20334;SDS011;10325;51.468;5.804;2022-08-19T09:25:20;9.97;;;8.90;;
20334;SDS011;10325;51.468;5.804;2022-08-19T09:27:59;9.23;;;8.10;;
20334;SDS011;10325;51.468;5.804;2022-08-19T09:30:49;10.10;;;7.63;;
20334;SDS011;10325;51.468;5.804;2022-08-19T09:33:22;7.67;;;6.60;;
20334;SDS011;10325;51.468;5.804;2022-08-19T09:36:04;7.73;;;6.83;;
20334;SDS011;10325;51.468;5.804;2022-08-19T09:38:38;10.27;;;7.67;;
20334;SDS011;10325;51.468;5.804;2022-08-19T09:41:14;9.67;;;7.90;;
20334;SDS011;10325;51.468;5.804;2022-08-19T09:43:47;8.57;;;7.77;;
20334;SDS011;10325;51.468;5.804;2022-08-19T09:46:19;9.47;;;8.33;;
20334;SDS011;10325;51.468;5.804;2022-08-19T09:48:54;9.97;;;9.07;;
20334;SDS011;10325;51.468;5.804;2022-08-19T09:51:33;9.57;;;8.60;;
20334;SDS011;10325;51.468;5.804;2022-08-19T09:54:06;8.87;;;8.07;;
20334;SDS011;10325;51.468;5.804;2022-08-19T09:56:38;9.83;;;8.93;;
20334;SDS011;10325;51.468;5.804;2022-08-19T09:59:08;10.10;;;9.10;;
20334;SDS011;10325;51.468;5.804;2022-08-19T10:01:40;9.87;;;9.07;;
20334;SDS011;10325;51.468;5.804;2022-08-19T10:04:10;10.23;;;9.23;;
20334;SDS011;10325;51.468;5.804;2022-08-19T10:06:48;10.57;;;9.67;;
20334;SDS011;10325;51.468;5.804;2022-08-19T10:09:22;9.40;;;8.50;;
20334;SDS011;10325;51.468;5.804;2022-08-19T10:12:00;10.07;;;9.17;;
20334;SDS011;10325;51.468;5.804;2022-08-19T10:14:29;11.10;;;10.00;;
20334;SDS011;10325;51.468;5.804;2022-08-19T10:17:01;10.57;;;9.67;;
20334;SDS011;10325;51.468;5.804;2022-08-19T10:19:47;11.20;;;10.10;;
20334;SDS011;10325;51.468;5.804;2022-08-19T10:22:22;10.60;;;9.70;;
20334;SDS011;10325;51.468;5.804;2022-08-19T10:25:01;10.70;;;9.67;;
20334;SDS011;10325;51.468;5.804;2022-08-19T10:27:33;10.20;;;9.30;;
20334;SDS011;10325;51.468;5.804;2022-08-19T10:30:02;10.47;;;9.47;;
20334;SDS011;10325;51.468;5.804;2022-08-19T10:32:36;11.87;;;10.70;;
20334;SDS011;10325;51.468;5.804;2022-08-19T10:35:13;12.10;;;11.00;;
20334;SDS011;10325;51.468;5.804;2022-08-19T10:37:48;12.20;;;11.10;;
20334;SDS011;10325;51.468;5.804;2022-08-19T10:40:29;11.07;;;10.13;;
20334;SDS011;10325;51.468;5.804;2022-08-19T10:43:02;10.73;;;9.80;;
20334;SDS011;10325;51.468;5.804;2022-08-19T10:45:32;11.07;;;10.07;;
20334;SDS011;10325;51.468;5.804;2022-08-19T10:48:19;11.93;;;10.70;;
20334;SDS011;10325;51.468;5.804;2022-08-19T10:50:50;13.60;;;11.80;;
20334;SDS011;10325;51.468;5.804;2022-08-19T10:53:50;13.67;;;12.57;;
20334;SDS011;10325;51.468;5.804;2022-08-19T10:56:19;14.70;;;13.30;;
20334;SDS011;10325;51.468;5.804;2022-08-19T10:59:13;14.20;;;12.70;;
20334;SDS011;10325;51.468;5.804;2022-08-19T11:01:42;15.03;;;13.53;;
20334;SDS011;10325;51.468;5.804;2022-08-19T11:04:18;15.17;;;13.27;;
20334;SDS011;10325;51.468;5.804;2022-08-19T11:06:55;14.77;;;12.13;;
20334;SDS011;10325;51.468;5.804;2022-08-19T11:09:27;13.83;;;11.83;;
20334;SDS011;10325;51.468;5.804;2022-08-19T11:12:01;12.23;;;11.17;;
20334;SDS011;10325;51.468;5.804;2022-08-19T11:14:33;12.50;;;11.30;;
20334;SDS011;10325;51.468;5.804;2022-08-19T11:17:20;13.67;;;11.23;;
20334;SDS011;10325;51.468;5.804;2022-08-19T11:19:53;12.13;;;10.87;;
20334;SDS011;10325;51.468;5.804;2022-08-19T11:22:24;12.60;;;10.73;;
20334;SDS011;10325;51.468;5.804;2022-08-19T11:25:08;12.50;;;10.17;;
20334;SDS011;10325;51.468;5.804;2022-08-19T11:27:42;11.33;;;10.23;;
20334;SDS011;10325;51.468;5.804;2022-08-19T11:30:15;11.77;;;10.57;;
20334;SDS011;10325;51.468;5.804;2022-08-19T11:32:59;11.47;;;10.37;;
20334;SDS011;10325;51.468;5.804;2022-08-19T11:35:30;12.53;;;11.23;;
20334;SDS011;10325;51.468;5.804;2022-08-19T11:38:01;10.93;;;9.83;;
20334;SDS011;10325;51.468;5.804;2022-08-19T11:40:36;11.07;;;9.97;;
20334;SDS011;10325;51.468;5.804;2022-08-19T11:43:10;11.70;;;10.50;;
20334;SDS011;10325;51.468;5.804;2022-08-19T11:45:42;11.30;;;10.10;;
20334;SDS011;10325;51.468;5.804;2022-08-19T11:48:14;13.13;;;10.07;;
20334;SDS011;10325;51.468;5.804;2022-08-19T11:50:45;10.77;;;9.77;;
20334;SDS011;10325;51.468;5.804;2022-08-19T11:53:14;10.90;;;9.80;;
20334;SDS011;10325;51.468;5.804;2022-08-19T11:55:47;10.80;;;9.80;;
20334;SDS011;10325;51.468;5.804;2022-08-19T11:58:22;10.60;;;9.60;;
20334;SDS011;10325;51.468;5.804;2022-08-19T12:00:59;11.40;;;9.40;;
20334;SDS011;10325;51.468;5.804;2022-08-19T12:03:35;10.37;;;9.13;;
20334;SDS011;10325;51.468;5.804;2022-08-19T12:06:05;10.87;;;9.87;;
20334;SDS011;10325;51.468;5.804;2022-08-19T12:08:36;11.67;;;10.47;;
20334;SDS011;10325;51.468;5.804;2022-08-19T12:11:05;10.27;;;9.20;;
20334;SDS011;10325;51.468;5.804;2022-08-19T12:13:36;9.37;;;8.47;;
20334;SDS011;10325;51.468;5.804;2022-08-19T12:16:20;9.37;;;8.47;;
20334;SDS011;10325;51.468;5.804;2022-08-19T12:19:07;10.23;;;9.17;;
20334;SDS011;10325;51.468;5.804;2022-08-19T12:21:38;11.07;;;9.97;;
20334;SDS011;10325;51.468;5.804;2022-08-19T12:24:06;11.53;;;10.43;;
20334;SDS011;10325;51.468;5.804;2022-08-19T12:26:37;13.30;;;11.83;;
20334;SDS011;10325;51.468;5.804;2022-08-19T12:29:21;12.20;;;10.90;;
20334;SDS011;10325;51.468;5.804;2022-08-19T12:31:53;12.97;;;11.60;;
20334;SDS011;10325;51.468;5.804;2022-08-19T12:34:25;13.67;;;12.27;;
20334;SDS011;10325;51.468;5.804;2022-08-19T12:37:01;13.87;;;12.57;;
20334;SDS011;10325;51.468;5.804;2022-08-19T12:39:38;14.97;;;13.43;;
20334;SDS011;10325;51.468;5.804;2022-08-19T12:42:26;15.60;;;14.00;;
20334;SDS011;10325;51.468;5.804;2022-08-19T12:44:58;15.30;;;13.47;;
20334;SDS011;10325;51.468;5.804;2022-08-19T12:47:33;15.13;;;13.53;;
20334;SDS011;10325;51.468;5.804;2022-08-19T12:50:08;16.60;;;15.00;;
20334;SDS011;10325;51.468;5.804;2022-08-19T12:52:36;18.40;;;16.37;;
20334;SDS011;10325;51.468;5.804;2022-08-19T12:55:11;16.07;;;14.53;;
20334;SDS011;10325;51.468;5.804;2022-08-19T12:57:55;18.33;;;16.53;;
20334;SDS011;10325;51.468;5.804;2022-08-19T13:00:25;17.93;;;16.07;;
20334;SDS011;10325;51.468;5.804;2022-08-19T13:02:53;17.73;;;16.03;;
20334;SDS011;10325;51.468;5.804;2022-08-19T13:05:26;18.33;;;16.07;;
20334;SDS011;10325;51.468;5.804;2022-08-19T13:08:02;16.80;;;15.00;;
20334;SDS011;10325;51.468;5.804;2022-08-19T13:10:37;15.93;;;14.27;;
20334;SDS011;10325;51.468;5.804;2022-08-19T13:13:07;15.87;;;14.27;;
20334;SDS011;10325;51.468;5.804;2022-08-19T13:15:37;17.13;;;15.37;;
20334;SDS011;10325;51.468;5.804;2022-08-19T13:18:11;16.93;;;15.33;;
20334;SDS011;10325;51.468;5.804;2022-08-19T13:20:42;14.93;;;13.63;;
20334;SDS011;10325;51.468;5.804;2022-08-19T13:23:19;16.73;;;14.07;;
20334;SDS011;10325;51.468;5.804;2022-08-19T13:25:57;15.93;;;13.57;;
20334;SDS011;10325;51.468;5.804;2022-08-19T13:28:28;13.27;;;11.97;;
20334;SDS011;10325;51.468;5.804;2022-08-19T13:31:19;15.00;;;13.63;;
20334;SDS011;10325;51.468;5.804;2022-08-19T13:34:10;15.83;;;14.23;;
20334;SDS011;10325;51.468;5.804;2022-08-19T13:36:39;15.73;;;14.30;;
20334;SDS011;10325;51.468;5.804;2022-08-19T13:39:11;15.40;;;14.00;;
20334;SDS011;10325;51.468;5.804;2022-08-19T13:41:51;15.30;;;13.67;;
20334;SDS011;10325;51.468;5.804;2022-08-19T13:44:23;14.67;;;13.27;;
20334;SDS011;10325;51.468;5.804;2022-08-19T13:47:02;14.40;;;13.00;;
20334;SDS011;10325;51.468;5.804;2022-08-19T13:49:35;15.20;;;13.80;;
20334;SDS011;10325;51.468;5.804;2022-08-19T13:52:09;16.10;;;14.50;;
20334;SDS011;10325;51.468;5.804;2022-08-19T13:54:38;15.23;;;13.83;;
20334;SDS011;10325;51.468;5.804;2022-08-19T13:57:09;14.43;;;13.10;;
20334;SDS011;10325;51.468;5.804;2022-08-19T13:59:38;14.03;;;12.63;;
20334;SDS011;10325;51.468;5.804;2022-08-19T14:02:08;14.77;;;13.27;;
20334;SDS011;10325;51.468;5.804;2022-08-19T14:04:41;16.43;;;14.83;;
20334;SDS011;10325;51.468;5.804;2022-08-19T14:07:13;15.00;;;13.40;;
20334;SDS011;10325;51.468;5.804;2022-08-19T14:09:45;14.43;;;13.03;;
20334;SDS011;10325;51.468;5.804;2022-08-19T14:12:22;16.30;;;14.57;;
20334;SDS011;10325;51.468;5.804;2022-08-19T14:14:55;14.27;;;12.90;;
20334;SDS011;10325;51.468;5.804;2022-08-19T14:17:26;12.93;;;11.67;;
20334;SDS011;10325;51.468;5.804;2022-08-19T14:20:00;13.33;;;12.10;;
20334;SDS011;10325;51.468;5.804;2022-08-19T14:22:38;12.63;;;11.43;;
20334;SDS011;10325;51.468;5.804;2022-08-19T14:25:12;13.57;;;11.67;;
20334;SDS011;10325;51.468;5.804;2022-08-19T14:27:47;11.37;;;10.33;;
20334;SDS011;10325;51.468;5.804;2022-08-19T14:30:22;9.63;;;8.73;;
20334;SDS011;10325;51.468;5.804;2022-08-19T14:33:06;9.57;;;8.10;;
20334;SDS011;10325;51.468;5.804;2022-08-19T14:35:36;8.27;;;7.53;;
20334;SDS011;10325;51.468;5.804;2022-08-19T14:38:14;9.63;;;8.77;;
20334;SDS011;10325;51.468;5.804;2022-08-19T14:40:54;7.93;;;7.13;;
20334;SDS011;10325;51.468;5.804;2022-08-19T14:43:27;7.63;;;6.93;;
20334;SDS011;10325;51.468;5.804;2022-08-19T14:45:57;8.80;;;8.00;;
20334;SDS011;10325;51.468;5.804;2022-08-19T14:48:29;8.57;;;7.77;;
20334;SDS011;10325;51.468;5.804;2022-08-19T14:50:58;8.57;;;7.77;;
20334;SDS011;10325;51.468;5.804;2022-08-19T14:53:28;8.67;;;7.83;;
20334;SDS011;10325;51.468;5.804;2022-08-19T14:55:59;8.47;;;7.67;;
20334;SDS011;10325;51.468;5.804;2022-08-19T14:58:43;7.67;;;6.87;;
20334;SDS011;10325;51.468;5.804;2022-08-19T15:01:14;8.73;;;7.07;;
20334;SDS011;10325;51.468;5.804;2022-08-19T15:03:46;7.97;;;6.70;;
20334;SDS011;10325;51.468;5.804;2022-08-19T15:06:17;6.87;;;6.27;;
20334;SDS011;10325;51.468;5.804;2022-08-19T15:08:46;8.47;;;6.70;;
20334;SDS011;10325;51.468;5.804;2022-08-19T15:11:16;6.87;;;6.10;;
20334;SDS011;10325;51.468;5.804;2022-08-19T15:13:52;7.80;;;6.30;;
20334;SDS011;10325;51.468;5.804;2022-08-19T15:16:22;6.63;;;5.93;;
20334;SDS011;10325;51.468;5.804;2022-08-19T15:18:56;7.13;;;6.43;;
20334;SDS011;10325;51.468;5.804;2022-08-19T15:21:37;7.43;;;6.83;;
20334;SDS011;10325;51.468;5.804;2022-08-19T15:24:07;7.47;;;6.70;;
20334;SDS011;10325;51.468;5.804;2022-08-19T15:26:41;7.83;;;7.13;;
20334;SDS011;10325;51.468;5.804;2022-08-19T15:29:24;8.47;;;7.67;;
20334;SDS011;10325;51.468;5.804;2022-08-19T15:32:05;8.23;;;7.43;;
20334;SDS011;10325;51.468;5.804;2022-08-19T15:34:41;8.47;;;7.67;;